Time;durP1;ratioP1;P1;durP2;ratioP2;P2;SDS_P1;SDS_P2;PMS_P1;PMS_P2;Temp;Humidity;BMP_temperature;BMP_pressure;BME280_temperature;BME280_humidity;BME280_pressure;Samples;Min_cycle;Max_cycle;Signal;HPM_P1;HPM_P2
2021/08/03 00:01:51;;;;;;;12.07;6.30;;;14.50;99.90;;;;;;4958322;29;20186;-91
2021/08/03 00:04:20;;;;;;;13.88;6.50;;;14.40;99.90;;;;;;4959671;28;20176;-90
2021/08/03 00:06:51;;;;;;;11.45;5.40;;;14.40;99.90;;;;;;4958127;29;20237;-90
2021/08/03 00:09:20;;;;;;;10.25;5.95;;;14.40;99.90;;;;;;4958310;29;20171;-91
2021/08/03 00:11:49;;;;;;;8.88;5.88;;;14.40;99.90;;;;;;4958569;29;20233;-91
2021/08/03 00:14:15;;;;;;;9.82;7.13;;;;;;;;;;4958534;29;20285;-91
2021/08/03 00:16:45;;;;;;;9.80;6.25;;;14.30;99.90;;;;;;4958175;29;20187;-91
2021/08/03 00:19:11;;;;;;;9.48;5.70;;;;;;;;;;4957433;29;20179;-91
2021/08/03 00:21:37;;;;;;;11.30;5.90;;;;;;;;;;4957547;29;20730;-91
2021/08/03 00:24:04;;;;;;;9.00;6.53;;;14.30;99.90;;;;;;4957613;29;20238;-91
2021/08/03 00:26:30;;;;;;;7.60;5.65;;;;;;;;;;4956911;29;20262;-91
2021/08/03 00:28:57;;;;;;;8.95;6.38;;;14.20;99.90;;;;;;4942430;29;20647;-90
2021/08/03 00:31:26;;;;;;;7.80;6.00;;;14.20;99.90;;;;;;4957597;29;20187;-90
2021/08/03 00:33:55;;;;;;;8.93;5.75;;;14.20;99.90;;;;;;4957614;29;20254;-90
2021/08/03 00:36:26;;;;;;;11.77;6.72;;;13.80;99.90;;;;;;4957181;29;20199;-90
2021/08/03 00:38:55;;;;;;;8.07;6.18;;;14.20;99.90;;;;;;4941584;29;20191;-90
2021/08/03 00:41:28;;;;;;;12.32;6.07;;;14.20;99.90;;;;;;4956800;29;20253;-89
2021/08/03 00:43:55;;;;;;;8.02;5.60;;;14.10;99.90;;;;;;4957298;29;20207;-90
2021/08/03 00:46:21;;;;;;;10.20;5.95;;;;;;;;;;4941168;29;20180;-91
2021/08/03 00:48:47;;;;;;;14.15;6.50;;;;;;;;;;4956800;29;20184;-90
2021/08/03 00:51:13;;;;;;;15.48;6.20;;;;;;;;;;4956984;29;20187;-91
2021/08/03 00:53:44;;;;;;;11.77;6.22;;;14.00;99.90;;;;;;4956652;29;20250;-92
2021/08/03 00:56:11;;;;;;;9.73;6.47;;;;;;;;;;4957039;28;20226;-90
2021/08/03 00:58:39;;;;;;;10.30;5.93;;;14.00;99.90;;;;;;4956768;29;20247;-91
2021/08/03 01:01:05;;;;;;;13.30;6.15;;;;;;;;;;4958362;28;20180;-90
2021/08/03 01:03:31;;;;;;;9.68;6.55;;;;;;;;;;4956764;29;20551;-90
2021/08/03 01:06:33;;;;;;;10.65;6.57;;;14.00;99.90;;;;;;4957022;29;20556;-91
2021/08/03 01:09:18;;;;;;;11.05;6.75;;;14.00;99.90;;;;;;4956405;29;20191;-91
2021/08/03 01:11:54;;;;;;;9.80;6.57;;;13.90;99.90;;;;;;4956287;28;20206;-92
2021/08/03 01:14:53;;;;;;;11.13;5.97;;;13.90;99.90;;;;;;4956482;29;20242;-91
2021/08/03 01:17:58;;;;;;;12.43;6.38;;;13.90;99.90;;;;;;4933646;29;20194;-91
2021/08/03 01:20:24;;;;;;;8.30;6.32;;;;;;;;;;4956777;29;20636;-92
2021/08/03 01:23:43;;;;;;;14.23;6.43;;;13.80;99.90;;;;;;4956621;29;20254;-92
2021/08/03 01:26:41;;;;;;;11.57;6.75;;;13.80;99.90;;;;;;4957848;28;20194;-92
2021/08/03 01:29:09;;;;;;;10.75;6.45;;;13.80;99.90;;;;;;4956887;29;20181;-92
2021/08/03 01:31:45;;;;;;;13.25;6.65;;;13.70;99.90;;;;;;4956351;29;20183;-92
2021/08/03 01:34:16;;;;;;;11.07;6.32;;;13.80;99.90;;;;;;4955872;29;20349;-91
2021/08/03 01:36:48;;;;;;;9.90;7.47;;;13.70;99.90;;;;;;4957570;28;20170;-91
2021/08/03 01:39:18;;;;;;;8.98;6.38;;;13.70;99.90;;;;;;4957398;29;20202;-91
2021/08/03 01:41:52;;;;;;;10.20;7.28;;;13.70;99.90;;;;;;4963680;29;20186;-91
2021/08/03 01:44:18;;;;;;;6.95;5.60;;;13.70;99.90;;;;;;4968091;29;20183;-90
2021/08/03 01:46:45;;;;;;;10.25;6.47;;;;;;;;;;4946384;29;20186;-90
2021/08/03 01:49:18;;;;;;;9.75;6.35;;;13.70;99.90;;;;;;4962731;29;20241;-89
2021/08/03 01:51:45;;;;;;;10.77;6.95;;;13.70;99.90;;;;;;4959134;29;20206;-89
2021/08/03 01:54:11;;;;;;;11.05;6.68;;;;;;;;;;4940369;29;20215;-89
2021/08/03 01:56:38;;;;;;;8.57;6.20;;;13.70;99.90;;;;;;4955840;28;20390;-90
2021/08/03 01:59:06;;;;;;;15.05;6.20;;;13.70;99.90;;;;;;4956686;29;20547;-89
2021/08/03 02:01:35;;;;;;;8.45;6.07;;;13.60;99.90;;;;;;4940284;29;20278;-90
2021/08/03 02:04:03;;;;;;;22.60;6.68;;;13.70;99.90;;;;;;4956276;29;20187;-89
2021/08/03 02:06:29;;;;;;;10.13;7.07;;;13.60;99.90;;;;;;4955820;29;20656;-89
2021/08/03 02:08:57;;;;;;;14.55;6.15;;;13.60;99.90;;;;;;4956023;29;20179;-91
2021/08/03 02:11:29;;;;;;;11.40;6.63;;;13.60;99.90;;;;;;4940084;29;20659;-90
2021/08/03 02:13:57;;;;;;;10.48;6.43;;;13.60;99.90;;;;;;4955616;29;20207;-91
2021/08/03 02:16:24;;;;;;;14.40;6.97;;;;;;;;;;4955886;29;20234;-89
2021/08/03 02:18:50;;;;;;;11.82;5.95;;;;;;;;;;4939915;29;20274;-89
2021/08/03 02:21:20;;;;;;;15.77;7.05;;;13.50;99.90;;;;;;4955441;29;20245;-90
2021/08/03 02:23:46;;;;;;;11.77;7.40;;;;;;;;;;4955780;28;20230;-91
2021/08/03 02:26:12;;;;;;;10.85;7.13;;;13.30;99.90;;;;;;4956944;29;20195;-91
2021/08/03 02:28:38;;;;;;;11.23;6.70;;;;;;;;;;4957520;29;20190;-91
2021/08/03 02:31:18;;;;;;;12.15;6.75;;;13.50;99.90;;;;;;4960374;29;20640;-90
2021/08/03 02:33:59;;;;;;;15.55;6.80;;;13.50;99.90;;;;;;4956269;29;20257;-88
2021/08/03 02:36:29;;;;;;;12.98;6.50;;;13.40;99.90;;;;;;4957189;29;20641;-90
2021/08/03 02:38:59;;;;;;;9.15;6.57;;;13.40;99.90;;;;;;4958165;29;20175;-88
2021/08/03 02:41:26;;;;;;;13.10;7.32;;;13.40;99.90;;;;;;4971987;29;20182;-89
2021/08/03 02:43:53;;;;;;;12.18;7.22;;;;;;;;;;4973279;29;20189;-90
2021/08/03 02:46:23;;;;;;;8.70;6.57;;;13.40;99.90;;;;;;4971242;29;20207;-89
2021/08/03 02:49:01;;;;;;;10.77;6.88;;;13.30;99.90;;;;;;4943515;29;20207;-90
2021/08/03 02:51:29;;;;;;;12.15;7.35;;;13.30;99.90;;;;;;4956564;29;20186;-91
2021/08/03 02:53:56;;;;;;;11.43;7.82;;;;;;;;;;4956407;29;20214;-89
2021/08/03 02:56:26;;;;;;;14.98;7.57;;;13.30;99.90;;;;;;4957446;28;20238;-89
2021/08/03 02:59:07;;;;;;;10.73;7.20;;;13.20;99.90;;;;;;4955523;29;20249;-90
2021/08/03 03:01:37;;;;;;;10.68;7.43;;;13.20;99.90;;;;;;4954496;29;20210;-89
2021/08/03 03:04:33;;;;;;;14.18;8.10;;;13.20;99.90;;;;;;4954001;29;20281;-89
2021/08/03 03:07:09;;;;;;;11.55;7.13;;;13.10;99.90;;;;;;4954418;29;20593;-90
2021/08/03 03:09:37;;;;;;;13.27;7.38;;;13.10;99.90;;;;;;4954534;29;20179;-91
2021/08/03 03:12:05;;;;;;;12.30;7.13;;;13.10;99.90;;;;;;4954457;29;20182;-91
2021/08/03 03:14:34;;;;;;;19.40;7.60;;;13.10;99.90;;;;;;4954328;29;20207;-90
2021/08/03 03:17:02;;;;;;;17.85;7.43;;;13.10;99.90;;;;;;4955526;29;20178;-90
2021/08/03 03:19:33;;;;;;;13.35;7.80;;;13.10;99.90;;;;;;4938711;29;20278;-94
2021/08/03 03:22:03;;;;;;;20.00;7.85;;;13.10;99.90;;;;;;4955143;29;20265;-90
2021/08/03 03:24:32;;;;;;;16.15;8.38;;;13.20;99.90;;;;;;4955065;29;20187;-91
2021/08/03 03:26:59;;;;;;;15.07;8.25;;;13.20;99.90;;;;;;4955510;29;20175;-92
2021/08/03 03:29:26;;;;;;;16.02;8.13;;;13.20;99.90;;;;;;4954973;29;20183;-91
2021/08/03 03:31:54;;;;;;;14.98;7.82;;;13.20;99.90;;;;;;4956066;29;20186;-92
2021/08/03 03:34:24;;;;;;;12.73;8.55;;;13.00;99.90;;;;;;4955142;28;20207;-92
2021/08/03 03:36:55;;;;;;;20.23;8.77;;;13.20;99.90;;;;;;4958889;29;20588;-92
2021/08/03 03:39:22;;;;;;;15.90;8.70;;;13.20;99.90;;;;;;4958439;29;20270;-92
2021/08/03 03:41:51;;;;;;;10.57;7.85;;;13.30;99.90;;;;;;4942317;29;20263;-92
2021/08/03 03:44:18;;;;;;;13.63;8.48;;;;;;;;;;4958509;29;20180;-93
2021/08/03 03:47:04;;;;;;;12.25;8.48;;;13.30;99.90;;;;;;4960211;29;20178;-93
2021/08/03 03:49:38;;;;;;;13.52;8.48;;;13.40;99.90;;;;;;4958170;29;20180;-91
2021/08/03 03:52:05;;;;;;;13.15;8.60;;;13.40;99.90;;;;;;4955179;29;20175;-91
2021/08/03 03:54:35;;;;;;;13.77;8.00;;;13.40;99.90;;;;;;4959390;29;20203;-91
2021/08/03 03:57:06;;;;;;;11.35;7.57;;;13.20;99.90;;;;;;4957447;28;20252;-93
2021/08/03 03:59:32;;;;;;;16.92;8.05;;;;;;;;;;4959030;29;20171;-93
2021/08/03 04:02:02;;;;;;;17.02;7.53;;;13.40;99.90;;;;;;4957474;29;20180;-92
2021/08/03 04:04:30;;;;;;;11.65;7.75;;;13.50;99.90;;;;;;4958053;29;20629;-92
2021/08/03 04:06:56;;;;;;;11.52;7.43;;;;;;;;;;4957561;29;20175;-90
2021/08/03 04:09:23;;;;;;;17.15;7.80;;;13.60;99.90;;;;;;4958933;29;20179;-91
2021/08/03 04:11:51;;;;;;;15.70;8.15;;;13.60;99.90;;;;;;4957326;29;20179;-92
2021/08/03 04:14:22;;;;;;;11.73;7.07;;;13.70;99.90;;;;;;4957936;29;20218;-91
2021/08/03 04:16:53;;;;;;;15.25;7.30;;;13.70;99.90;;;;;;4958949;28;20159;-90
2021/08/03 04:19:19;;;;;;;14.65;7.32;;;;;;;;;;4957685;29;20262;-91
2021/08/03 04:21:48;;;;;;;9.80;7.25;;;;;;;;;;4957274;29;20242;-91
2021/08/03 04:24:15;;;;;;;16.80;7.50;;;14.00;99.90;;;;;;4958311;28;20189;-90
2021/08/03 04:26:41;;;;;;;9.20;6.82;;;;;;;;;;4957515;29;20262;-91
2021/08/03 04:29:08;;;;;;;13.13;7.50;;;;;;;;;;4956621;29;20183;-89
2021/08/03 04:31:34;;;;;;;11.32;6.80;;;;;;;;;;4957526;29;20175;-92
2021/08/03 04:33:59;;;;;;;11.07;6.90;;;14.40;99.90;;;;;;4956791;29;20215;-89
2021/08/03 04:36:26;;;;;;;11.50;6.53;;;;;;;;;;4941286;29;20716;-89
2021/08/03 04:38:52;;;;;;;14.48;6.68;;;;;;;;;;4956835;29;20214;-89
2021/08/03 04:41:18;;;;;;;14.57;6.65;;;;;;;;;;4958070;29;20194;-91
2021/08/03 04:43:44;;;;;;;15.98;6.93;;;;;;;;;;4956905;29;20241;-90
2021/08/03 04:46:12;;;;;;;14.05;6.68;;;14.30;99.90;;;;;;4940369;29;20183;-91
2021/08/03 04:48:38;;;;;;;11.43;6.78;;;;;;;;;;4958715;29;20187;-92
2021/08/03 04:51:05;;;;;;;15.50;6.40;;;14.90;99.90;;;;;;4956949;29;20175;-91
2021/08/03 04:53:31;;;;;;;8.70;6.22;;;14.70;99.90;;;;;;4958520;29;20206;-91
2021/08/03 04:56:01;;;;;;;15.63;6.35;;;14.70;99.90;;;;;;4955983;28;20242;-92
2021/08/03 04:58:27;;;;;;;12.50;7.10;;;;;;;;;;4957513;29;20186;-91
2021/08/03 05:00:53;;;;;;;11.27;6.53;;;;;;;;;;4956406;29;20647;-91
2021/08/03 05:03:20;;;;;;;11.90;6.28;;;;;;;;;;4940984;29;20187;-91
2021/08/03 05:05:46;;;;;;;10.23;5.88;;;;;;;;;;4958249;29;20184;-91
2021/08/03 05:08:12;;;;;;;9.18;6.18;;;;;;;;;;4971746;29;20186;-91
2021/08/03 05:10:39;;;;;;;9.35;6.45;;;;;;;;;;4972867;29;20191;-92
2021/08/03 05:13:05;;;;;;;9.30;5.95;;;;;;;;;;4967758;29;20239;-91
2021/08/03 05:15:33;;;;;;;8.30;5.90;;;15.20;99.90;;;;;;4952686;29;20198;-91
2021/08/03 05:17:59;;;;;;;11.32;5.70;;;;;;;;;;4969777;29;20215;-92
2021/08/03 05:20:27;;;;;;;10.45;5.40;;;;;;;;;;4957095;29;20175;-91
2021/08/03 05:22:53;;;;;;;11.63;6.55;;;;;;;;;;4956448;29;20187;-92
2021/08/03 05:25:20;;;;;;;11.18;5.70;;;;;;;;;;4956177;29;20175;-91
2021/08/03 05:27:46;;;;;;;9.10;5.88;;;;;;;;;;4941134;29;20209;-91
2021/08/03 05:30:12;;;;;;;12.70;5.93;;;15.60;99.90;;;;;;4956392;29;20238;-91
2021/08/03 05:32:45;;;;;;;10.45;5.70;;;15.70;99.90;;;;;;4940794;29;20184;-92
2021/08/03 05:35:11;;;;;;;11.20;4.90;;;;;;;;;;4956339;29;20195;-91
2021/08/03 05:37:46;;;;;;;9.05;5.82;;;;;;;;;;4956336;29;20194;-94
2021/08/03 05:40:14;;;;;;;7.88;4.88;;;;;;;;;;4956555;29;20183;-92
2021/08/03 05:42:43;;;;;;;9.82;4.78;;;16.20;99.90;;;;;;4940702;29;20253;-93
2021/08/03 05:45:12;;;;;;;9.45;5.05;;;;;;;;;;4942504;29;20188;-93
2021/08/03 05:47:39;;;;;;;8.38;4.95;;;16.40;99.90;;;;;;4940407;29;20230;-95
2021/08/03 05:50:09;;;;;;;10.63;4.63;;;16.60;99.90;;;;;;4925613;29;20180;-93
2021/08/03 05:52:35;;;;;;;9.48;4.35;;;;;;;;;;4971675;28;20194;-93
2021/08/03 06:01:30;;;;;;;5.80;3.90;;;;;;;;;;5027600;23;20247;-94
2021/08/03 06:03:56;;;;;;;5.75;3.60;;;;;;;;;;4925119;29;20191;-94
2021/08/03 06:06:47;;;;;;;5.95;3.85;;;17.40;99.90;;;;;;4926717;29;20216;-96
2021/08/03 06:09:18;;;;;;;7.00;3.90;;;17.50;99.90;;;;;;4934558;28;20216;-96
2021/08/03 06:14:55;;;;;;;;;;;;;;;;;;;;;
2021/08/03 06:17:57;;;;;;;8.63;4.10;;;17.60;99.90;;;;;;4943142;29;20247;-96
2021/08/03 06:21:04;;;;;;;4.22;3.10;;;17.60;99.90;;;;;;4924851;29;20207;-94
2021/08/03 06:23:34;;;;;;;12.68;3.55;;;17.60;99.90;;;;;;4925216;29;20184;-93
2021/08/03 06:26:03;;;;;;;4.05;2.72;;;17.50;99.90;;;;;;4925929;29;20187;-93
2021/08/03 06:35:54;;;;;;;7.95;3.60;;;17.80;99.90;;;;;;4910795;28;20257;-94
2021/08/03 06:38:20;;;;;;;9.18;3.45;;;;;;;;;;4904651;29;20189;-96
2021/08/03 06:41:34;;;;;;;;;;;;;;;;;;;;;
2021/08/03 06:44:47;;;;;;;5.60;2.90;;;17.90;99.90;;;;;;4880059;29;20230;-93
2021/08/03 06:47:44;;;;;;;4.82;3.17;;;17.90;99.90;;;;;;4870413;29;20648;-92
2021/08/03 06:50:49;;;;;;;4.75;3.13;;;18.00;99.90;;;;;;4860561;29;20186;-94
2021/08/03 06:53:29;;;;;;;;;;;;;;;;;;;;;
2021/08/03 06:56:13;;;;;;;;;;;;;;;;;;;;;
2021/08/03 06:59:18;;;;;;;5.05;3.15;;;18.10;99.90;;;;;;4886588;29;20192;-95
2021/08/03 07:02:04;;;;;;;9.18;2.97;;;18.10;99.90;;;;;;4881427;29;20848;-95
2021/08/03 07:04:33;;;;;;;5.13;3.30;;;18.20;99.90;;;;;;4882936;29;20189;-93
2021/08/03 07:07:04;;;;;;;4.72;3.03;;;18.20;99.90;;;;;;4883109;29;20186;-92
2021/08/03 07:09:31;;;;;;;4.25;2.78;;;;;;;;;;4920537;29;20188;-94
2021/08/03 07:11:57;;;;;;;4.60;2.85;;;;;;;;;;4902168;29;20212;-93
2021/08/03 07:14:24;;;;;;;8.82;3.17;;;18.20;99.90;;;;;;4901404;29;20234;-91
2021/08/03 07:16:55;;;;;;;6.20;2.90;;;18.20;99.90;;;;;;4908897;29;20231;-95
2021/08/03 07:19:33;;;;;;;5.70;3.08;;;18.20;99.90;;;;;;4950162;29;20184;-93
2021/08/03 07:21:59;;;;;;;3.50;2.80;;;;;;;;;;4939669;29;20187;-94
2021/08/03 07:24:25;;;;;;;3.00;2.60;;;18.50;99.90;;;;;;4959976;29;20245;-90
2021/08/03 07:26:54;;;;;;;4.93;2.72;;;;;;;;;;4930598;29;20203;-91
2021/08/03 07:29:20;;;;;;;6.05;2.80;;;;;;;;;;4938427;29;20274;-92
2021/08/03 07:31:47;;;;;;;2.97;2.47;;;21.60;99.90;;;;;;4954005;29;20226;-94
2021/08/03 07:34:13;;;;;;;18.02;3.85;;;;;;;;;;4920901;29;20693;-93
2021/08/03 07:36:39;;;;;;;9.35;2.80;;;;;;;;;;4953347;29;20183;-91
2021/08/03 07:39:06;;;;;;;4.53;2.10;;;19.20;99.90;;;;;;4936386;29;20187;-94
2021/08/03 07:41:36;;;;;;;6.63;3.00;;;19.30;99.90;;;;;;4953010;29;20179;-93
2021/08/03 07:44:03;;;;;;;10.07;3.00;;;19.40;99.90;;;;;;4936231;29;20266;-92
2021/08/03 07:46:30;;;;;;;4.07;2.35;;;19.50;99.90;;;;;;4953176;29;20254;-93
2021/08/03 07:48:57;;;;;;;8.63;2.70;;;19.60;99.90;;;;;;4936358;29;20233;-92
2021/08/03 07:51:25;;;;;;;6.13;2.28;;;;;;;;;;4952469;29;20179;-91
2021/08/03 07:53:52;;;;;;;12.23;2.58;;;;;;;;;;4935515;29;20294;-91
2021/08/03 07:56:18;;;;;;;5.40;2.50;;;;;;;;;;4935440;29;20182;-91
2021/08/03 07:58:47;;;;;;;5.45;2.67;;;19.50;99.90;;;;;;4936765;29;20190;-93
2021/08/03 08:01:13;;;;;;;4.47;2.70;;;;;;;;;;4937400;29;20696;-91
2021/08/03 08:03:40;;;;;;;3.38;2.25;;;;;;;;;;4937476;29;20671;-91
2021/08/03 08:06:06;;;;;;;5.55;2.60;;;19.70;99.90;;;;;;4937875;29;20183;-93
2021/08/03 08:08:33;;;;;;;3.92;2.13;;;19.90;99.90;;;;;;4956162;29;20178;-90
2021/08/03 08:10:59;;;;;;;6.97;2.15;;;;;;;;;;4939817;29;20250;-91
2021/08/03 08:13:25;;;;;;;3.30;2.45;;;;;;;;;;4957437;29;20222;-91
2021/08/03 08:15:51;;;;;;;4.88;2.38;;;20.10;99.90;;;;;;4961496;29;20180;-90
2021/08/03 08:18:17;;;;;;;3.90;2.25;;;;;;;;;;4959128;29;20267;-91
2021/08/03 08:20:45;;;;;;;3.55;1.98;;;20.40;99.90;;;;;;4939639;29;20289;-91
2021/08/03 08:23:13;;;;;;;5.18;2.13;;;20.50;99.90;;;;;;4958624;29;20182;-91
2021/08/03 08:25:39;;;;;;;3.83;1.63;;;;;;;;;;4960865;29;20175;-93
2021/08/03 08:28:08;;;;;;;2.20;1.70;;;20.60;99.90;;;;;;4944113;29;20185;-92
2021/08/03 08:30:41;;;;;;;2.95;1.80;;;20.50;99.90;;;;;;4944923;29;20194;-93
2021/08/03 08:33:07;;;;;;;2.47;1.73;;;;;;;;;;4946066;29;20175;-92
2021/08/03 08:35:34;;;;;;;4.25;1.80;;;;;;;;;;4945140;29;20187;-91
2021/08/03 08:38:01;;;;;;;3.45;1.98;;;;;;;;;;4945412;29;20183;-93
2021/08/03 08:40:27;;;;;;;2.75;1.83;;;;;;;;;;4946801;29;20276;-94
2021/08/03 08:42:53;;;;;;;2.15;1.70;;;;;;;;;;4945792;29;20183;-92
2021/08/03 08:45:22;;;;;;;3.60;2.28;;;20.90;99.90;;;;;;4946102;29;20184;-94
2021/08/03 08:47:49;;;;;;;2.20;1.63;;;21.00;99.90;;;;;;4946198;29;20179;-93
2021/08/03 08:50:20;;;;;;;2.55;1.55;;;21.10;99.90;;;;;;4945741;29;20246;-92
2021/08/03 08:52:50;;;;;;;2.63;1.65;;;21.10;99.90;;;;;;4945703;29;20190;-92
2021/08/03 08:55:19;;;;;;;14.45;1.80;;;;;;;;;;4945956;29;20214;-91
2021/08/03 08:57:50;;;;;;;6.93;1.88;;;;;;;;;;4945286;29;20179;-91
2021/08/03 09:00:16;;;;;;;4.93;2.00;;;;;;;;;;4947273;29;20755;-92
2021/08/03 09:02:49;;;;;;;3.92;2.53;;;21.60;99.90;;;;;;4961688;29;20165;-86
2021/08/03 09:05:25;;;;;;;2.28;1.60;;;21.50;99.90;;;;;;4963764;29;20186;-90
2021/08/03 09:07:59;;;;;;;3.88;1.80;;;21.60;99.90;;;;;;4961740;29;20179;-91
2021/08/03 09:10:36;;;;;;;5.72;1.80;;;21.70;99.90;;;;;;4944863;29;20217;-91
2021/08/03 09:13:02;;;;;;;4.47;1.52;;;;;;;;;;4950554;29;20183;-93
2021/08/03 09:15:35;;;;;;;7.30;1.92;;;21.70;99.90;;;;;;4953234;29;20179;-92
2021/08/03 09:18:28;;;;;;;3.65;1.55;;;21.80;99.90;;;;;;4949008;29;20210;-91
2021/08/03 09:20:54;;;;;;;4.32;2.20;;;;;;;;;;4940270;29;20515;-91
2021/08/03 09:23:20;;;;;;;2.05;1.60;;;21.80;99.90;;;;;;4962772;29;20187;-89
2021/08/03 09:26:02;;;;;;;7.32;2.80;;;21.80;99.90;;;;;;4927796;29;20720;-91
2021/08/03 09:28:28;;;;;;;3.53;1.73;;;;;;;;;;4925430;29;20663;-92
2021/08/03 09:30:56;;;;;;;3.83;1.83;;;21.90;99.90;;;;;;4943309;29;20218;-93
2021/08/03 09:33:27;;;;;;;2.28;1.75;;;21.90;99.90;;;;;;4943021;29;20214;-89
2021/08/03 09:35:55;;;;;;;2.28;1.42;;;21.90;99.90;;;;;;4943881;29;20206;-91
2021/08/03 09:38:25;;;;;;;2.53;1.55;;;21.90;99.90;;;;;;4967216;29;20198;-90
2021/08/03 09:40:53;;;;;;;4.03;1.70;;;;;;;;;;4951619;29;20174;-90
2021/08/03 09:43:26;;;;;;;4.07;1.45;;;22.10;99.80;;;;;;4955395;29;20187;-89
2021/08/03 09:45:52;;;;;;;4.60;2.83;;;;;;;;;;4933409;29;20224;-90
2021/08/03 09:48:23;;;;;;;2.92;1.50;;;22.50;98.80;;;;;;4937674;29;20239;-89
2021/08/03 09:51:21;;;;;;;4.88;1.60;;;22.60;99.10;;;;;;4928203;29;20641;-90
2021/08/03 09:53:50;;;;;;;2.10;1.30;;;22.30;97.60;;;;;;4917286;29;20215;-90
2021/08/03 09:56:28;;;;;;;1.90;1.40;;;22.10;98.70;;;;;;4936799;29;20242;-94
2021/08/03 09:59:09;;;;;;;4.03;1.58;;;22.10;98.70;;;;;;4938902;29;20191;-93
2021/08/03 10:01:49;;;;;;;2.63;1.60;;;22.30;99.00;;;;;;4936162;29;20230;-94
2021/08/03 10:04:17;;;;;;;3.78;1.50;;;22.60;97.90;;;;;;4939554;29;20179;-90
2021/08/03 10:06:44;;;;;;;4.10;1.50;;;;;;;;;;4938982;29;20180;-88
2021/08/03 10:09:15;;;;;;;2.63;1.30;;;22.50;96.40;;;;;;4955288;29;20684;-90
2021/08/03 10:11:43;;;;;;;2.10;1.30;;;;;;;;;;4922983;29;20656;-92
2021/08/03 10:14:09;;;;;;;5.05;1.25;;;;;;;;;;4932703;29;20295;-88
2021/08/03 10:16:35;;;;;;;3.70;1.35;;;22.30;94.00;;;;;;4922372;29;20195;-92
2021/08/03 10:19:02;;;;;;;3.15;1.30;;;;;;;;;;4919770;29;20886;-91
2021/08/03 10:21:28;;;;;;;1.92;1.17;;;;;;;;;;4920707;29;20184;-93
2021/08/03 10:24:05;;;;;;;1.48;1.13;;;22.10;95.50;;;;;;4929247;29;20286;-93
2021/08/03 10:26:33;;;;;;;7.55;1.25;;;;;;;;;;4921188;29;20241;-90
2021/08/03 10:29:26;;;;;;;2.80;1.35;;;22.20;94.60;;;;;;4921304;29;20266;-91
2021/08/03 10:31:53;;;;;;;2.33;1.15;;;22.40;94.10;;;;;;4931145;29;20226;-93
2021/08/03 10:34:44;;;;;;;5.38;1.73;;;22.60;94.80;;;;;;4934912;29;20203;-92
2021/08/03 10:37:11;;;;;;;3.25;1.38;;;22.90;94.80;;;;;;4928314;29;20208;-88
2021/08/03 10:39:55;;;;;;;1.85;1.33;;;23.00;95.10;;;;;;4943647;29;20182;-90
2021/08/03 10:42:25;;;;;;;2.78;1.40;;;23.30;95.10;;;;;;4940085;29;20180;-88
2021/08/03 10:45:01;;;;;;;2.22;1.23;;;23.50;95.30;;;;;;4925735;29;20657;-88
2021/08/03 10:47:33;;;;;;;4.72;1.63;;;23.50;95.20;;;;;;4926300;29;20210;-88
2021/08/03 10:50:02;;;;;;;1.88;1.42;;;23.60;95.20;;;;;;4931350;29;20183;-88
2021/08/03 10:52:58;;;;;;;1.83;1.40;;;20.40;94.40;;;;;;4928766;29;20235;-87
2021/08/03 10:55:42;;;;;;;2.53;1.20;;;23.80;95.10;;;;;;4915499;29;20196;-89
2021/08/03 10:58:13;;;;;;;2.05;1.17;;;23.60;95.40;;;;;;4923334;29;20179;-88
2021/08/03 11:00:54;;;;;;;2.00;1.60;;;22.90;94.80;;;;;;4923767;29;20685;-89
2021/08/03 11:03:32;;;;;;;2.55;1.70;;;23.00;95.10;;;;;;4930846;29;20262;-89
2021/08/03 11:06:03;;;;;;;3.05;1.48;;;23.20;96.10;;;;;;4934753;29;20517;-89
2021/08/03 11:08:29;;;;;;;5.15;1.60;;;23.20;96.30;;;;;;4935622;29;20179;-88
2021/08/03 11:10:57;;;;;;;3.28;1.48;;;23.60;94.80;;;;;;4934857;29;20202;-89
2021/08/03 11:13:34;;;;;;;1.50;1.35;;;23.90;93.90;;;;;;4929148;29;20207;-89
2021/08/03 11:16:00;;;;;;;7.68;1.52;;;;;;;;;;4935934;29;20223;-89
2021/08/03 11:18:42;;;;;;;2.28;1.38;;;23.60;94.30;;;;;;4921340;29;20195;-89
2021/08/03 11:21:12;;;;;;;2.22;1.33;;;23.20;94.70;;;;;;4921140;29;20540;-88
2021/08/03 11:24:04;;;;;;;7.78;4.38;;;23.20;94.90;;;;;;4934052;29;20179;-89
2021/08/03 11:26:48;;;;;;;3.20;1.48;;;23.10;94.50;;;;;;4934457;29;20184;-90
2021/08/03 11:29:16;;;;;;;1.50;1.40;;;22.80;94.90;;;;;;4952245;29;20167;-89
2021/08/03 11:31:56;;;;;;;3.45;1.45;;;22.70;96.40;;;;;;4929379;29;20183;-88
2021/08/03 11:34:31;;;;;;;1.48;1.38;;;22.70;95.10;;;;;;4935779;29;20196;-86
2021/08/03 11:37:11;;;;;;;2.47;1.50;;;22.70;94.60;;;;;;4925836;29;20183;-87
2021/08/03 11:39:50;;;;;;;3.30;1.48;;;19.70;94.50;;;;;;4945597;29;20204;-89
2021/08/03 11:42:32;;;;;;;4.57;1.33;;;22.70;95.00;;;;;;4949423;29;20175;-89
2021/08/03 11:45:02;;;;;;;1.60;1.40;;;22.70;95.40;;;;;;4926993;29;20191;-89
2021/08/03 11:47:46;;;;;;;3.97;1.40;;;23.50;93.00;;;;;;4951446;29;20183;-88
2021/08/03 11:50:14;;;;;;;2.58;1.30;;;23.60;93.50;;;;;;4930033;29;20176;-87
2021/08/03 11:52:40;;;;;;;2.45;1.60;;;;;;;;;;4944959;29;20188;-89
2021/08/03 11:55:07;;;;;;;2.60;1.80;;;23.80;93.00;;;;;;4917013;29;20205;-88
2021/08/03 11:57:41;;;;;;;3.17;1.48;;;23.50;94.10;;;;;;4952755;29;20215;-89
2021/08/03 12:00:12;;;;;;;2.40;1.63;;;23.30;92.40;;;;;;4928738;29;20226;-89
2021/08/03 12:02:40;;;;;;;10.18;2.28;;;23.10;94.10;;;;;;4943366;29;20168;-88
2021/08/03 12:05:07;;;;;;;2.90;1.65;;;22.90;94.70;;;;;;4945899;29;20188;-90
2021/08/03 12:07:33;;;;;;;1.73;1.45;;;23.00;93.30;;;;;;4927373;29;20599;-88
2021/08/03 12:09:59;;;;;;;2.35;1.45;;;;;;;;;;4923555;29;20556;-91
2021/08/03 12:12:25;;;;;;;2.35;1.50;;;23.00;93.50;;;;;;4946780;29;20184;-88
2021/08/03 12:15:05;;;;;;;1.90;1.30;;;23.00;94.40;;;;;;4928220;29;20258;-89
2021/08/03 12:17:30;;;;;;;4.78;1.83;;;22.90;94.20;;;;;;4931710;29;20535;-85
2021/08/03 12:20:03;;;;;;;4.13;1.75;;;22.80;94.60;;;;;;4927672;29;20188;-88
2021/08/03 12:22:31;;;;;;;1.90;1.48;;;22.60;94.90;;;;;;4924502;29;20171;-86
2021/08/03 12:25:01;;;;;;;5.43;1.60;;;22.50;95.00;;;;;;4925831;29;20196;-87
2021/08/03 12:27:37;;;;;;;3.83;1.70;;;22.40;96.20;;;;;;4919865;29;20171;-86
2021/08/03 12:30:05;;;;;;;3.75;2.20;;;22.20;96.90;;;;;;4925034;29;20191;-86
2021/08/03 12:32:43;;;;;;;3.25;2.40;;;21.40;99.90;;;;;;4934953;29;20342;-88
2021/08/03 12:35:11;;;;;;;7.57;2.90;;;20.30;99.90;;;;;;4924126;29;20211;-88
2021/08/03 12:37:37;;;;;;;4.20;2.92;;;;;;;;;;4934843;29;20190;-86
2021/08/03 12:40:06;;;;;;;7.80;3.33;;;19.60;99.90;;;;;;4927656;29;20205;-89
2021/08/03 12:42:47;;;;;;;8.18;4.60;;;19.40;99.90;;;;;;4925456;29;20178;-84
2021/08/03 12:45:16;;;;;;;7.43;4.38;;;18.90;99.90;;;;;;4927088;29;20553;-87
2021/08/03 12:47:53;;;;;;;6.90;4.65;;;18.70;99.90;;;;;;4935002;29;20176;-86
2021/08/03 12:50:20;;;;;;;8.63;5.22;;;18.80;99.90;;;;;;4940345;29;20645;-87
2021/08/03 12:52:50;;;;;;;13.25;5.72;;;19.10;99.90;;;;;;4926804;29;20561;-89
2021/08/03 12:55:50;;;;;;;6.72;4.00;;;19.70;99.90;;;;;;4940160;29;20204;-89
2021/08/03 12:58:40;;;;;;;6.15;4.15;;;20.00;99.90;;;;;;4915301;29;20184;-87
2021/08/03 13:01:15;;;;;;;7.90;4.47;;;20.40;99.90;;;;;;4929330;29;20226;-89
2021/08/03 13:03:41;;;;;;;5.30;3.95;;;20.40;99.90;;;;;;4940543;29;20180;-89
2021/08/03 13:06:07;;;;;;;4.10;3.70;;;20.60;99.90;;;;;;4939256;29;20202;-88
2021/08/03 13:08:33;;;;;;;3.70;3.25;;;;;;;;;;4927954;29;20660;-90
2021/08/03 13:10:59;;;;;;;6.25;3.65;;;;;;;;;;4920365;29;20629;-90
2021/08/03 13:13:24;;;;;;;5.85;3.83;;;21.20;99.90;;;;;;4934725;29;20575;-90
2021/08/03 13:15:50;;;;;;;3.70;2.85;;;;;;;;;;4920147;29;20243;-90
2021/08/03 13:18:17;;;;;;;2.70;2.20;;;;;;;;;;4912552;29;20238;-91
2021/08/03 13:20:43;;;;;;;2.22;2.03;;;;;;;;;;4929912;29;20298;-91
2021/08/03 13:23:11;;;;;;;6.00;2.10;;;;;;;;;;4935860;29;20175;-92
2021/08/03 13:25:37;;;;;;;4.38;1.70;;;;;;;;;;4937234;29;20667;-91
2021/08/03 13:28:03;;;;;;;4.25;1.77;;;;;;;;;;4925917;29;20246;-91
2021/08/03 13:30:30;;;;;;;3.72;2.03;;;;;;;;;;4920233;29;20195;-89
2021/08/03 13:32:59;;;;;;;4.07;2.00;;;22.80;99.90;;;;;;4937740;29;20200;-92
2021/08/03 13:35:25;;;;;;;2.28;1.90;;;;;;;;;;4921147;29;20259;-90
2021/08/03 13:37:59;;;;;;;3.15;1.98;;;23.10;99.90;;;;;;4919415;29;20172;-91
2021/08/03 13:40:28;;;;;;;2.15;1.95;;;;;;;;;;4945996;29;20171;-91
2021/08/03 13:42:59;;;;;;;1.90;1.48;;;23.60;99.90;;;;;;4919667;29;20183;-91
2021/08/03 13:45:27;;;;;;;2.53;2.10;;;;;;;;;;4929451;29;20259;-91
2021/08/03 13:47:56;;;;;;;9.80;2.13;;;23.60;99.90;;;;;;4949035;29;20281;-93
2021/08/03 13:50:22;;;;;;;2.28;1.60;;;;;;;;;;4923447;29;20176;-90
2021/08/03 13:52:51;;;;;;;3.53;2.30;;;23.10;99.90;;;;;;4946459;29;20180;-91
2021/08/03 13:55:17;;;;;;;2.03;1.65;;;;;;;;;;4928653;29;20203;-91
2021/08/03 13:57:49;;;;;;;2.75;1.70;;;;;;;;;;4925155;29;20190;-92
2021/08/03 14:00:15;;;;;;;3.65;2.08;;;22.30;99.90;;;;;;4933390;29;20345;-91
2021/08/03 14:02:46;;;;;;;2.38;2.10;;;22.80;99.90;;;;;;4932460;29;20171;-91